Time;durP1;ratioP1;P1;durP2;ratioP2;P2;SDS_P1;SDS_P2;PMS_P1;PMS_P2;Temp;Humidity;BMP_temperature;BMP_pressure;BME280_temperature;BME280_humidity;BME280_pressure;Samples;Min_cycle;Max_cycle;Signal;HPM_P1;HPM_P2
2021/06/28 00:01:05;;;;;;;6.82;6.03;;;;;;;14.89;nan;100991.28;5055196;28;20051;-79
2021/06/28 00:03:33;;;;;;;6.53;5.65;;;;;;;14.92;nan;100983.19;5064612;28;20386;-79
2021/06/28 00:06:36;;;;;;;6.88;5.78;;;;;;;14.80;nan;100979.16;5066760;28;20047;-79
2021/06/28 00:09:04;;;;;;;6.97;6.28;;;;;;;14.73;nan;100979.41;5047547;28;20047;-80
2021/06/28 00:11:31;;;;;;;7.20;5.85;;;;;;;14.61;nan;100981.53;5053423;28;20041;-78
2021/06/28 00:13:59;;;;;;;6.75;5.93;;;;;;;14.59;nan;100983.38;5049846;28;20045;-78
2021/06/28 00:16:26;;;;;;;6.93;6.05;;;;;;;14.61;nan;100978.84;5065556;28;20044;-81
2021/06/28 00:18:53;;;;;;;7.00;6.13;;;;;;;14.64;nan;100978.78;5040659;28;20749;-79
2021/06/28 00:21:21;;;;;;;6.97;5.80;;;;;;;14.69;nan;100978.63;5054503;28;20033;-79
2021/06/28 00:23:51;;;;;;;7.55;6.45;;;;;;;14.64;nan;100973.47;5060658;28;20045;-79
2021/06/28 00:26:21;;;;;;;7.53;6.15;;;;;;;14.60;nan;100981.56;5049989;28;20037;-79
2021/06/28 00:28:51;;;;;;;6.22;5.53;;;;;;;14.60;nan;100974.47;5049276;28;20045;-80
2021/06/28 00:31:18;;;;;;;6.35;5.57;;;;;;;14.55;nan;100984.41;5045767;28;20028;-81
2021/06/28 00:33:46;;;;;;;6.85;5.65;;;;;;;14.54;nan;100979.09;5069446;28;20040;-79
2021/06/28 00:36:13;;;;;;;7.38;5.88;;;;;;;14.53;nan;100983.56;5067094;28;20029;-80
2021/06/28 00:38:41;;;;;;;7.68;6.25;;;;;;;14.51;nan;100984.53;5068730;28;20052;-80
2021/06/28 00:41:11;;;;;;;6.63;5.93;;;;;;;14.52;nan;100987.13;5065661;28;20203;-78
2021/06/28 00:43:41;;;;;;;8.60;6.53;;;;;;;14.49;nan;100984.59;5037786;28;20123;-79
2021/06/28 00:46:08;;;;;;;7.07;5.60;;;;;;;14.47;nan;100983.78;5057125;28;20044;-79
2021/06/28 00:48:38;;;;;;;7.50;6.00;;;;;;;14.45;nan;100985.59;5059176;28;20132;-81
2021/06/28 00:51:05;;;;;;;6.80;6.10;;;;;;;14.39;nan;100983.09;5066946;28;20037;-79
2021/06/28 00:53:33;;;;;;;7.15;6.25;;;;;;;14.44;nan;100983.81;5036537;28;20040;-79
2021/06/28 00:56:09;;;;;;;7.05;6.40;;;;;;;14.39;nan;100982.22;5035714;28;20045;-78
2021/06/28 00:58:40;;;;;;;8.20;6.63;;;;;;;14.35;nan;100992.94;5045272;28;20037;-80
2021/06/28 01:01:18;;;;;;;6.47;5.80;;;;;;;14.32;nan;100986.88;5045421;28;20045;-78
2021/06/28 01:03:46;;;;;;;8.85;6.97;;;;;;;14.09;nan;100988.41;5052709;28;20037;-78
2021/06/28 01:06:18;;;;;;;6.75;5.85;;;;;;;14.04;nan;100994.78;5050961;28;20128;-78
2021/06/28 01:08:46;;;;;;;6.88;6.18;;;;;;;14.04;nan;100990.34;5055406;28;20033;-79
2021/06/28 01:11:17;;;;;;;7.43;6.38;;;;;;;14.01;nan;100984.25;5069817;28;20059;-79
2021/06/28 01:13:45;;;;;;;8.93;6.75;;;;;;;13.97;nan;100978.16;5039645;28;20055;-78
2021/06/28 01:16:18;;;;;;;7.13;6.20;;;;;;;13.86;nan;100987.34;5045680;28;20033;-79
2021/06/28 01:18:48;;;;;;;8.10;7.30;;;;;;;13.92;nan;100982.72;5064277;28;20047;-78
2021/06/28 01:21:18;;;;;;;7.80;6.68;;;;;;;13.89;nan;100988.13;5037786;28;20078;-79
2021/06/28 01:23:50;;;;;;;8.43;6.68;;;;;;;13.89;nan;100982.84;5048940;28;20051;-78
2021/06/28 01:26:23;;;;;;;7.18;6.43;;;;;;;13.90;nan;100976.59;5049456;28;20033;-78
2021/06/28 01:28:50;;;;;;;7.43;6.65;;;;;;;13.83;nan;100979.47;5061344;28;20055;-79
2021/06/28 01:31:17;;;;;;;7.07;6.38;;;;;;;13.73;nan;100973.56;5074918;28;20033;-79
2021/06/28 01:33:45;;;;;;;7.40;6.28;;;;;;;13.79;nan;100973.41;5059170;28;20037;-78
2021/06/28 01:36:15;;;;;;;7.50;6.50;;;;;;;13.67;nan;100984.34;5074202;28;20049;-78
2021/06/28 01:38:43;;;;;;;7.45;6.68;;;;;;;13.66;nan;100980.81;5053691;28;20210;-79
2021/06/28 01:41:10;;;;;;;7.72;6.20;;;;;;;13.64;nan;100976.47;5073349;28;20041;-77
2021/06/28 01:43:37;;;;;;;7.85;6.80;;;;;;;13.58;nan;100981.94;5056872;28;20044;-79
2021/06/28 01:46:11;;;;;;;7.65;6.38;;;;;;;13.63;nan;100980.06;5038968;28;20041;-78
2021/06/28 01:48:58;;;;;;;7.93;6.35;;;;;;;13.60;nan;100978.31;5073175;28;20087;-78
2021/06/28 01:51:30;;;;;;;8.38;6.60;;;;;;;13.58;nan;100976.63;5082280;28;20056;-80
2021/06/28 01:53:58;;;;;;;7.32;6.32;;;;;;;13.57;nan;100986.38;5047054;28;20119;-78
2021/06/28 01:56:28;;;;;;;8.75;7.28;;;;;;;13.58;nan;100987.25;5052168;28;20040;-78
2021/06/28 01:58:55;;;;;;;7.90;6.82;;;;;;;13.53;nan;100985.59;5070292;28;20499;-79
2021/06/28 02:01:35;;;;;;;6.97;6.13;;;;;;;13.50;nan;100984.81;5054066;28;20051;-79
2021/06/28 02:04:03;;;;;;;7.20;6.10;;;;;;;13.47;nan;100980.47;5055878;28;20047;-80
2021/06/28 02:06:43;;;;;;;8.40;6.80;;;;;;;13.46;nan;100980.50;5036157;28;20055;-78
2021/06/28 02:09:13;;;;;;;7.22;6.38;;;;;;;13.44;nan;100990.28;5052546;28;20295;-80
2021/06/28 02:11:40;;;;;;;9.27;6.88;;;;;;;13.46;nan;100988.47;5076819;28;20137;-79
2021/06/28 02:14:10;;;;;;;9.07;6.82;;;;;;;13.47;nan;100985.78;5058644;28;20048;-79
2021/06/28 02:16:38;;;;;;;8.60;6.78;;;;;;;13.43;nan;100989.41;5053235;28;20037;-80
2021/06/28 02:19:05;;;;;;;8.18;7.00;;;;;;;13.37;nan;100986.94;5050512;28;20040;-80
2021/06/28 02:21:35;;;;;;;8.75;7.20;;;;;;;13.37;nan;100986.94;5044092;28;20033;-79
2021/06/28 02:24:08;;;;;;;8.35;6.60;;;;;;;13.34;nan;100984.34;5088522;28;20067;-81
2021/06/28 02:26:35;;;;;;;8.48;6.50;;;;;;;13.29;nan;100980.97;5063393;28;20032;-80
2021/06/28 02:29:17;;;;;;;8.40;7.18;;;;;;;13.29;nan;100978.31;5068357;28;20047;-79
2021/06/28 02:31:44;;;;;;;7.57;6.28;;;;;;;13.29;nan;100977.44;5048502;28;20032;-80
2021/06/28 02:34:12;;;;;;;8.65;6.63;;;;;;;13.29;nan;100973.00;5080127;28;20039;-80
2021/06/28 02:37:06;;;;;;;7.95;6.88;;;;;;;13.21;nan;100978.50;5066188;28;20050;-80
2021/06/28 02:39:33;;;;;;;7.05;6.35;;;;;;;13.16;nan;100985.69;5062349;28;20048;-79
2021/06/28 02:42:06;;;;;;;7.70;6.25;;;;;;;13.13;nan;100979.59;5085945;28;20032;-80
2021/06/28 02:44:34;;;;;;;8.30;7.03;;;;;;;13.13;nan;100974.28;5050789;28;20039;-80
2021/06/28 02:47:01;;;;;;;7.20;6.35;;;;;;;13.12;nan;100973.41;5064067;28;20043;-79
2021/06/28 02:49:28;;;;;;;8.35;7.05;;;;;;;13.11;nan;100974.28;5062257;28;20257;-81
2021/06/28 02:52:25;;;;;;;8.85;7.10;;;;;;;13.04;nan;100966.56;5081031;28;20123;-80
2021/06/28 02:54:52;;;;;;;8.18;6.75;;;;;;;13.04;nan;100966.56;5085694;28;20081;-79
2021/06/28 02:57:22;;;;;;;7.65;6.85;;;;;;;13.05;nan;100966.53;5073278;28;20044;-80
2021/06/28 02:59:49;;;;;;;8.60;7.30;;;;;;;13.06;nan;100962.09;5056918;28;20044;-79
2021/06/28 03:02:19;;;;;;;8.82;7.05;;;;;;;13.08;nan;100963.78;5059202;28;20031;-81
2021/06/28 03:04:47;;;;;;;8.18;6.82;;;;;;;13.09;nan;100962.00;5060714;28;20040;-80
2021/06/28 03:07:17;;;;;;;8.32;6.18;;;;;;;13.04;nan;100967.44;5068713;28;20036;-81
2021/06/28 03:09:44;;;;;;;7.53;6.63;;;;;;;12.96;nan;100967.63;5052538;28;20032;-80
2021/06/28 03:12:12;;;;;;;7.55;6.38;;;;;;;12.88;nan;100959.00;5065728;28;20036;-79
2021/06/28 03:14:42;;;;;;;9.52;6.97;;;;;;;12.88;nan;100964.31;5087496;28;20036;-79
2021/06/28 03:17:12;;;;;;;8.23;7.15;;;;;;;12.87;nan;100957.25;5089915;28;20123;-79
2021/06/28 03:19:43;;;;;;;8.75;6.93;;;;;;;12.84;nan;100957.31;5071580;28;20044;-79
2021/06/28 03:22:16;;;;;;;8.82;7.18;;;;;;;12.84;nan;100967.91;5056642;28;20044;-79
2021/06/28 03:24:43;;;;;;;8.98;6.03;;;;;;;12.81;nan;100964.50;5095245;28;20070;-78
2021/06/28 03:27:12;;;;;;;8.57;6.57;;;;;;;12.78;nan;100967.19;5066940;28;20043;-81
2021/06/28 03:29:39;;;;;;;10.75;6.55;;;;;;;12.81;nan;100962.72;5071313;28;20051;-81
2021/06/28 03:32:12;;;;;;;8.90;6.85;;;;;;;12.81;nan;100968.00;5072182;28;20039;-79
2021/06/28 03:34:39;;;;;;;9.57;6.90;;;;;;;12.88;nan;100960.78;5082595;28;20039;-80
2021/06/28 03:37:06;;;;;;;7.07;5.95;;;;;;;12.92;nan;100957.13;5081526;28;20044;-79
2021/06/28 03:39:34;;;;;;;8.27;7.07;;;;;;;12.95;nan;100959.72;5055178;28;20048;-81
2021/06/28 03:42:01;;;;;;;8.10;6.95;;;;;;;12.91;nan;100955.38;5074898;28;20036;-79
2021/06/28 03:44:28;;;;;;;8.80;7.03;;;;;;;13.01;nan;100950.72;5096015;28;20521;-80
2021/06/28 03:46:56;;;;;;;9.02;7.70;;;;;;;13.05;nan;100955.03;5095829;28;20047;-79
2021/06/28 03:49:23;;;;;;;8.38;6.95;;;;;;;13.05;nan;100955.91;5087857;28;20048;-79
2021/06/28 03:51:51;;;;;;;7.65;6.82;;;;;;;13.06;nan;100952.34;5097387;28;20049;-79
2021/06/28 03:54:18;;;;;;;10.10;7.28;;;;;;;13.00;nan;100960.44;5109484;28;20049;-79
2021/06/28 03:56:50;;;;;;;8.55;6.85;;;;;;;12.93;nan;100959.72;5083552;28;20393;-78
2021/06/28 03:59:18;;;;;;;8.65;6.60;;;;;;;12.86;nan;100963.47;5079124;28;20046;-78
2021/06/28 04:02:14;;;;;;;8.43;6.45;;;;;;;12.83;nan;100958.22;5077364;28;20055;-80
2021/06/28 04:04:47;;;;;;;9.00;6.78;;;;;;;12.85;nan;100963.47;5074806;28;20105;-79
2021/06/28 04:07:18;;;;;;;7.72;6.85;;;;;;;12.82;nan;100966.22;5079689;28;20051;-80
2021/06/28 04:09:46;;;;;;;7.90;6.80;;;;;;;12.85;nan;100971.44;5077892;28;20027;-79
2021/06/28 04:12:27;;;;;;;8.57;6.78;;;;;;;12.89;nan;100959.88;5090181;28;20032;-80
2021/06/28 04:14:55;;;;;;;7.60;6.80;;;;;;;12.90;nan;100967.78;5094416;28;20032;-81
2021/06/28 04:17:47;;;;;;;7.60;6.88;;;;;;;12.93;nan;100970.34;5108739;28;20051;-80
2021/06/28 04:20:16;;;;;;;8.00;6.85;;;;;;;12.97;nan;100968.50;5083441;28;20037;-79
2021/06/28 04:22:44;;;;;;;8.27;6.35;;;;;;;13.01;nan;100974.59;5052816;28;20041;-80
2021/06/28 04:25:14;;;;;;;8.00;7.20;;;;;;;13.07;nan;100964.69;5060031;28;20043;-81
2021/06/28 04:27:42;;;;;;;9.05;7.35;;;;;;;13.11;nan;100965.47;5056492;28;20041;-80
2021/06/28 04:30:22;;;;;;;8.43;6.65;;;;;;;13.12;nan;100972.53;5058330;28;20028;-82
2021/06/28 04:32:56;;;;;;;7.78;6.40;;;;;;;13.11;nan;100965.47;5068986;28;20047;-82
2021/06/28 04:35:25;;;;;;;8.15;6.93;;;;;;;13.14;nan;100971.59;5053328;28;20047;-82
2021/06/28 04:37:54;;;;;;;9.05;6.22;;;;;;;13.16;nan;100972.41;5049071;28;20037;-81
2021/06/28 04:40:23;;;;;;;8.20;7.03;;;;;;;13.18;nan;100970.56;5066299;28;20034;-82
2021/06/28 04:42:51;;;;;;;7.53;6.30;;;;;;;13.26;nan;100967.75;5083995;28;20047;-81
2021/06/28 04:45:19;;;;;;;7.55;6.60;;;;;;;13.30;nan;100966.78;5091341;28;20090;-82
2021/06/28 04:47:47;;;;;;;11.95;6.68;;;;;;;13.39;nan;100971.84;5067183;28;20042;-82
2021/06/28 04:50:16;;;;;;;8.73;6.53;;;;;;;13.48;nan;100968.94;5078603;28;20044;-82
2021/06/28 04:52:44;;;;;;;8.57;7.05;;;;;;;13.48;nan;100971.59;5061989;28;20028;-79
2021/06/28 04:55:14;;;;;;;9.48;6.72;;;;;;;13.52;nan;100972.34;5087014;28;20036;-81
2021/06/28 04:57:44;;;;;;;7.90;6.80;;;;;;;13.57;nan;100973.13;5082308;28;20123;-79
2021/06/28 05:04:02;;;;;;;7.32;6.07;;;;;;;13.73;nan;100974.44;5106540;28;20047;-77
2021/06/28 05:06:34;;;;;;;9.40;6.75;;;;;;;13.76;nan;100973.47;5099858;28;20040;-79
2021/06/28 05:09:01;;;;;;;9.27;7.65;;;;;;;13.77;nan;100973.41;5093667;28;20037;-77
2021/06/28 05:11:58;;;;;;;10.27;7.25;;;;;;;13.85;nan;100973.19;5079244;28;20037;-79
2021/06/28 05:14:56;;;;;;;8.60;6.80;;;;;;;13.97;nan;100975.50;5082321;28;20029;-78
2021/06/28 05:18:02;;;;;;;8.18;6.47;;;;;;;14.25;nan;100972.88;4975412;28;20047;-78
2021/06/28 05:23:53;;;;;;;10.38;6.00;;;;;;;15.69;nan;100976.09;5075011;28;20063;-79
2021/06/28 05:26:49;;;;;;;8.95;5.93;;;;;;;15.92;nan;100978.78;5069957;28;20051;-78
2021/06/28 05:29:24;;;;;;;6.53;5.82;;;;;;;16.00;nan;100976.69;5081720;28;20075;-80
2021/06/28 05:31:56;;;;;;;6.30;5.68;;;;;;;15.82;nan;100971.19;5057358;28;20134;-78
2021/06/28 05:37:14;;;;;;;6.68;5.65;;;;;;;15.59;nan;100967.53;5065418;28;20032;-79
2021/06/28 05:39:47;;;;;;;7.95;7.00;;;;;;;15.50;nan;100965.22;5078400;28;20047;-79
2021/06/28 05:42:15;;;;;;;6.93;5.65;;;;;;;15.52;nan;100970.47;5052960;28;20036;-81
2021/06/28 05:44:42;;;;;;;7.10;6.10;;;;;;;15.79;nan;100963.31;5080661;28;20035;-78
2021/06/28 05:47:11;;;;;;;7.10;5.97;;;;;;;16.97;nan;100965.72;5079750;28;20110;-80
2021/06/28 05:49:43;;;;;;;5.70;5.10;;;;;;;19.48;nan;100956.56;5052334;28;20040;-78
2021/06/28 05:52:17;;;;;;;5.80;5.18;;;;;;;21.76;nan;100955.13;5054436;28;20516;-78
2021/06/28 05:54:44;;;;;;;6.07;4.72;;;;;;;23.51;nan;100951.63;5057740;28;20044;-81
2021/06/28 05:57:18;;;;;;;5.57;4.97;;;;;;;25.14;nan;100957.75;5079868;28;20481;-80
2021/06/28 06:00:00;;;;;;;5.03;4.55;;;;;;;26.02;nan;100951.75;5063532;28;20040;-81
2021/06/28 06:02:27;;;;;;;5.47;4.60;;;;;;;25.68;nan;100946.31;5070262;28;20045;-80
2021/06/28 06:04:56;;;;;;;5.50;4.72;;;;;;;24.83;nan;100948.38;5064199;28;20464;-80
2021/06/28 06:10:40;;;;;;;5.07;4.43;;;;;;;23.40;nan;100948.81;5059270;28;20080;-79
2021/06/28 06:13:09;;;;;;;5.38;4.88;;;;;;;23.08;nan;100947.47;5048122;28;20452;-81
2021/06/28 06:15:51;;;;;;;6.95;5.68;;;;;;;22.65;nan;100945.81;5077823;28;20065;-80
2021/06/28 06:18:19;;;;;;;5.35;4.85;;;;;;;22.21;nan;100943.34;5100441;27;20037;-82
2021/06/28 06:20:53;;;;;;;5.05;4.65;;;;;;;21.84;nan;100952.81;5078875;28;20060;-80
2021/06/28 06:23:20;;;;;;;5.78;5.15;;;;;;;21.66;nan;100954.84;5104424;27;20075;-81
2021/06/28 06:25:50;;;;;;;6.18;5.57;;;;;;;21.63;nan;100960.44;5068015;28;20044;-80
2021/06/28 06:28:17;;;;;;;5.18;4.68;;;;;;;21.58;nan;100951.75;5090395;28;20607;-81
2021/06/28 06:30:44;;;;;;;7.32;5.60;;;;;;;21.54;nan;100952.94;5059435;28;20047;-81
2021/06/28 06:33:14;;;;;;;6.00;5.50;;;;;;;21.66;nan;100960.22;5082128;28;20710;-82
2021/06/28 06:35:41;;;;;;;5.75;5.20;;;;;;;21.74;nan;100957.94;5082895;28;20512;-82
2021/06/28 06:38:10;;;;;;;6.30;5.70;;;;;;;21.98;nan;100965.41;5085014;28;20039;-80
2021/06/28 06:40:48;;;;;;;6.05;5.45;;;;;;;22.26;nan;100956.47;5068170;28;20547;-80
2021/06/28 06:43:32;;;;;;;5.63;5.03;;;;;;;22.68;nan;100964.44;5084725;28;20028;-82
2021/06/28 06:46:05;;;;;;;6.20;5.43;;;;;;;23.06;nan;100965.59;5063613;28;20051;-81
2021/06/28 06:48:42;;;;;;;5.68;5.10;;;;;;;23.31;nan;100969.19;5070027;28;20075;-81
2021/06/28 06:51:11;;;;;;;6.35;5.65;;;;;;;23.42;nan;100959.50;5063989;28;20040;-79
2021/06/28 06:53:38;;;;;;;6.78;6.07;;;;;;;23.51;nan;100970.50;5066071;28;20036;-80
2021/06/28 06:56:13;;;;;;;6.40;5.80;;;;;;;23.47;nan;100971.69;5062885;28;20110;-82
2021/06/28 06:58:40;;;;;;;6.35;4.97;;;;;;;23.41;nan;100977.50;5072427;28;20044;-81
2021/06/28 07:01:09;;;;;;;5.47;4.97;;;;;;;23.39;nan;100982.16;5075972;28;20028;-80
2021/06/28 07:03:45;;;;;;;6.25;5.65;;;;;;;23.36;nan;100981.47;5069911;28;20105;-81
2021/06/28 07:06:12;;;;;;;4.88;4.47;;;;;;;23.28;nan;100987.41;5071431;28;20094;-81
2021/06/28 07:08:45;;;;;;;4.63;4.15;;;;;;;23.25;nan;100983.09;5078781;28;20040;-80
2021/06/28 07:11:12;;;;;;;5.03;4.53;;;;;;;23.23;nan;100987.72;5077748;28;20421;-81
2021/06/28 07:13:43;;;;;;;4.88;4.47;;;;;;;23.26;nan;100983.94;5063202;28;20386;-80
2021/06/28 07:16:15;;;;;;;6.53;5.18;;;;;;;23.33;nan;100990.66;5070965;28;20044;-80
2021/06/28 07:18:46;;;;;;;5.63;5.13;;;;;;;23.35;nan;100987.84;5069877;28;20040;-80
2021/06/28 07:21:23;;;;;;;6.47;4.88;;;;;;;23.38;nan;100991.22;5079136;28;20041;-81
2021/06/28 07:23:56;;;;;;;5.07;4.57;;;;;;;23.50;nan;100992.19;5080019;28;20045;-80
2021/06/28 07:26:28;;;;;;;5.65;5.15;;;;;;;23.63;nan;100992.22;5075145;28;20635;-81
2021/06/28 07:29:01;;;;;;;4.90;4.50;;;;;;;23.72;nan;100997.00;5064489;28;20590;-81
2021/06/28 07:31:30;;;;;;;6.35;4.82;;;;;;;23.81;nan;100999.06;5056428;28;20044;-82
2021/06/28 07:33:59;;;;;;;5.22;4.72;;;;;;;23.92;nan;100998.28;5064987;28;20086;-82
2021/06/28 07:36:26;;;;;;;5.13;4.70;;;;;;;24.00;nan;101001.31;5061623;28;20055;-81
2021/06/28 07:38:53;;;;;;;4.97;4.57;;;;;;;24.22;nan;101006.91;5078399;28;20044;-82
2021/06/28 07:41:32;;;;;;;5.78;4.55;;;;;;;24.53;nan;101004.69;5060307;28;20530;-82
2021/06/28 07:44:05;;;;;;;5.40;4.90;;;;;;;24.74;nan;101004.94;5076172;28;20063;-81
2021/06/28 07:46:50;;;;;;;6.28;5.45;;;;;;;25.04;nan;101005.38;5078519;28;20039;-82
2021/06/28 07:49:19;;;;;;;5.22;4.72;;;;;;;25.28;nan;101005.34;5074241;28;20040;-81
2021/06/28 07:51:47;;;;;;;4.80;4.40;;;;;;;25.54;nan;100996.06;5066982;28;20233;-81
2021/06/28 07:54:17;;;;;;;4.20;3.80;;;;;;;25.77;nan;100999.72;5066820;28;20025;-83
2021/06/28 07:57:02;;;;;;;4.93;4.28;;;;;;;25.81;nan;100995.81;5066992;28;20059;-81
2021/06/28 07:59:36;;;;;;;4.93;4.50;;;;;;;26.00;nan;100983.53;5075077;28;20048;-81
2021/06/28 08:02:17;;;;;;;4.70;4.28;;;;;;;26.06;nan;100994.72;5051000;28;20044;-81
2021/06/28 08:04:46;;;;;;;4.80;4.03;;;;;;;26.07;nan;100984.75;5066968;28;20052;-81
2021/06/28 08:07:13;;;;;;;6.03;4.30;;;;;;;26.17;nan;100976.75;5038316;28;20550;-82
2021/06/28 08:10:27;;;;;;;4.43;4.03;;;;;;;26.28;nan;100980.28;5059929;28;20039;-82
2021/06/28 08:12:59;;;;;;;4.72;4.00;;;;;;;26.25;nan;100982.41;5081851;28;20040;-82
2021/06/28 08:15:31;;;;;;;4.35;3.95;;;;;;;26.35;nan;100978.81;5059882;28;20552;-82
2021/06/28 08:17:57;;;;;;;4.25;3.90;;;;;;;26.54;nan;100974.63;5041200;28;20048;-81
2021/06/28 08:20:24;;;;;;;4.80;4.40;;;;;;;26.75;nan;100970.16;5056781;28;20075;-82
2021/06/28 08:22:54;;;;;;;4.57;4.18;;;;;;;26.94;nan;100969.47;5052737;28;20143;-82
2021/06/28 08:25:24;;;;;;;4.68;4.18;;;;;;;27.02;nan;100966.09;5042813;28;20062;-83
2021/06/28 08:27:53;;;;;;;4.70;4.30;;;;;;;27.16;nan;100963.13;5051568;28;20494;-83
2021/06/28 08:30:32;;;;;;;9.27;4.32;;;;;;;27.02;nan;100960.69;5053918;28;20092;-82
2021/06/28 08:33:02;;;;;;;4.68;4.20;;;;;;;27.17;nan;100962.97;5041658;28;20040;-81
2021/06/28 08:35:29;;;;;;;4.38;4.00;;;;;;;26.78;nan;100961.75;5058184;28;20048;-83
2021/06/28 08:37:56;;;;;;;4.60;4.18;;;;;;;26.83;nan;100964.09;5043930;28;20040;-82
2021/06/28 08:40:28;;;;;;;4.05;3.72;;;;;;;26.92;nan;100963.31;5035936;28;20048;-83
2021/06/28 08:42:55;;;;;;;37.92;6.97;;;;;;;26.71;nan;100968.66;5065102;28;20492;-82
2021/06/28 08:45:43;;;;;;;4.18;3.72;;;;;;;26.86;nan;100966.53;5080282;28;20101;-81
2021/06/28 08:48:13;;;;;;;3.85;3.35;;;;;;;27.23;nan;100969.72;5066615;28;20047;-82
2021/06/28 08:50:50;;;;;;;3.70;3.40;;;;;;;27.74;nan;100961.66;5059680;28;20044;-81
2021/06/28 08:53:19;;;;;;;4.85;3.50;;;;;;;28.07;nan;100969.66;5055560;28;20032;-81
2021/06/28 08:55:46;;;;;;;3.60;3.08;;;;;;;28.33;nan;100962.78;5050972;28;20047;-81
2021/06/28 08:58:13;;;;;;;3.85;3.53;;;;;;;28.37;nan;100963.38;5065615;28;20047;-82
2021/06/28 09:00:44;;;;;;;4.22;3.83;;;;;;;28.22;nan;100965.59;5024393;28;20048;-82
2021/06/28 09:03:13;;;;;;;4.18;3.50;;;;;;;28.19;nan;100969.44;5063799;28;20047;-82
2021/06/28 09:06:10;;;;;;;5.43;3.65;;;;;;;28.16;nan;100977.00;5080577;28;20071;-83
2021/06/28 09:08:37;;;;;;;23.15;6.30;;;;;;;27.91;nan;100972.88;5043481;28;20072;-81
2021/06/28 09:11:17;;;;;;;4.65;3.50;;;;;;;27.62;nan;100968.13;5058877;28;20115;-83
2021/06/28 09:13:47;;;;;;;3.65;3.35;;;;;;;27.41;nan;100968.16;5078355;28;20032;-81
2021/06/28 09:16:21;;;;;;;3.63;3.13;;;;;;;27.15;nan;100966.78;5067332;28;20131;-82
2021/06/28 09:18:56;;;;;;;3.97;3.67;;;;;;;27.35;nan;100963.25;5073635;28;20099;-82
2021/06/28 09:21:51;;;;;;;3.58;3.28;;;;;;;27.82;nan;100963.69;5075411;28;20052;-82
2021/06/28 09:24:37;;;;;;;16.27;5.32;;;;;;;28.11;nan;100957.56;5067905;28;20036;-81
2021/06/28 09:27:10;;;;;;;3.80;3.40;;;;;;;28.29;nan;100964.06;5084694;28;20028;-82
2021/06/28 09:29:48;;;;;;;3.65;3.35;;;;;;;28.41;nan;100960.22;5080162;28;20036;-81
2021/06/28 09:32:18;;;;;;;4.35;3.90;;;;;;;28.54;nan;100969.00;5093190;28;20099;-81
2021/06/28 09:35:06;;;;;;;4.90;3.78;;;;;;;28.30;nan;100971.22;5066608;28;20024;-81
2021/06/28 09:37:39;;;;;;;3.80;3.22;;;;;;;28.11;nan;100965.69;5070644;28;20056;-82
2021/06/28 09:40:07;;;;;;;4.72;3.30;;;;;;;27.84;nan;100969.88;5067776;28;20060;-82
2021/06/28 09:42:45;;;;;;;4.07;2.95;;;;;;;27.63;nan;100967.13;5085082;28;20036;-82
2021/06/28 09:45:22;;;;;;;3.50;3.17;;;;;;;27.54;nan;100973.38;5071141;28;20052;-82
2021/06/28 09:47:52;;;;;;;3.78;3.45;;;;;;;27.62;nan;100970.84;5070151;28;20051;-82
2021/06/28 09:50:24;;;;;;;3.50;3.20;;;;;;;27.76;nan;100961.53;5081430;28;20108;-82
2021/06/28 09:52:59;;;;;;;3.72;3.42;;;;;;;27.82;nan;100958.25;5059337;28;20041;-82
2021/06/28 09:55:34;;;;;;;5.03;3.58;;;;;;;28.19;nan;100961.28;5065530;28;21767;-82
2021/06/28 09:58:01;;;;;;;3.13;2.92;;;;;;;28.62;nan;100960.16;5079541;28;20127;-81
2021/06/28 10:00:42;;;;;;;3.20;2.90;;;;;;;29.15;nan;100951.59;5085014;28;20097;-80
2021/06/28 10:03:45;;;;;;;3.85;3.50;;;;;;;28.99;nan;100952.19;5079517;28;20046;-79
2021/06/28 10:09:09;;;;;;;6.05;3.47;;;;;;;30.09;nan;100949.81;5083415;28;20048;-81
2021/06/28 10:11:47;;;;;;;3.33;3.03;;;;;;;30.04;nan;100948.56;5083066;28;20598;-81
2021/06/28 10:14:32;;;;;;;3.47;3.10;;;;;;;29.17;nan;100950.44;5071066;28;20052;-79
2021/06/28 10:17:00;;;;;;;3.70;3.35;;;;;;;29.75;nan;100940.47;5065465;28;20541;-80
2021/06/28 10:19:29;;;;;;;3.80;3.40;;;;;;;29.77;nan;100949.38;5089954;28;20070;-80
2021/06/28 10:22:22;;;;;;;3.50;3.20;;;;;;;30.03;nan;100939.53;5081886;28;20587;-80
2021/06/28 10:24:57;;;;;;;3.47;3.15;;;;;;;30.44;nan;100934.59;5076769;28;20029;-80
2021/06/28 10:27:27;;;;;;;3.40;3.10;;;;;;;30.77;nan;100935.81;5070082;28;20062;-80
2021/06/28 10:30:35;;;;;;;5.35;3.30;;;;;;;30.88;nan;100932.88;5088499;28;20056;-80
2021/06/28 10:33:30;;;;;;;4.20;3.25;;;;;;;31.01;nan;100930.56;5064942;28;20169;-79
2021/06/28 10:36:28;;;;;;;3.10;2.90;;;;;;;30.53;nan;100925.50;5075945;28;20048;-80
2021/06/28 10:38:56;;;;;;;3.40;3.10;;;;;;;30.54;nan;100924.47;5053232;28;20518;-81
2021/06/28 10:42:14;;;;;;;3.50;3.20;;;;;;;30.29;nan;100914.31;5056825;28;20612;-79
2021/06/28 10:44:53;;;;;;;3.85;3.13;;;;;;;30.07;nan;100916.41;5048483;28;20071;-80
2021/06/28 10:47:50;;;;;;;4.07;3.25;;;;;;;29.97;nan;100902.84;5091012;28;20518;-81
2021/06/28 10:50:26;;;;;;;3.47;3.17;;;;;;;30.11;nan;100904.25;5082358;28;20075;-81
2021/06/28 10:52:55;;;;;;;4.00;3.25;;;;;;;29.57;nan;100905.00;5080884;28;20568;-81
2021/06/28 10:55:23;;;;;;;3.67;3.38;;;;;;;29.41;nan;100908.31;5047079;28;20667;-81
2021/06/28 10:58:06;;;;;;;3.40;3.03;;;;;;;29.59;nan;100905.69;5091068;28;20044;-81
2021/06/28 11:00:52;;;;;;;3.40;3.10;;;;;;;29.56;nan;100912.31;5087426;27;20540;-82
2021/06/28 11:03:22;;;;;;;3.92;3.50;;;;;;;29.54;nan;100911.59;5090004;28;20497;-83
2021/06/28 11:06:25;;;;;;;3.58;3.28;;;;;;;29.51;nan;100898.28;5067369;28;20028;-80
2021/06/28 11:09:07;;;;;;;3.58;3.25;;;;;;;29.17;nan;100908.78;5080082;28;20066;-80
2021/06/28 11:11:46;;;;;;;3.60;3.30;;;;;;;29.50;nan;100902.00;5065490;28;20040;-81
2021/06/28 11:14:25;;;;;;;3.88;3.47;;;;;;;29.92;nan;100896.97;5074401;28;20151;-82
2021/06/28 11:17:09;;;;;;;3.58;3.28;;;;;;;29.82;nan;100898.03;5088774;28;20036;-82
2021/06/28 11:22:33;;;;;;;3.60;3.30;;;;;;;29.59;nan;100886.66;5085093;28;20048;-82
2021/06/28 11:25:23;;;;;;;3.42;2.95;;;;;;;29.48;nan;100889.53;5069880;28;20033;-82
2021/06/28 11:27:59;;;;;;;4.28;3.75;;;;;;;29.54;nan;100886.25;5051964;28;20056;-82
2021/06/28 11:30:37;;;;;;;3.75;3.28;;;;;;;29.87;nan;100885.69;5076800;28;20037;-82
2021/06/28 11:33:07;;;;;;;3.80;3.50;;;;;;;30.25;nan;100887.34;5068408;28;20043;-82
2021/06/28 11:35:40;;;;;;;3.67;3.33;;;;;;;30.00;nan;100882.59;5055494;28;20726;-81
2021/06/28 11:38:36;;;;;;;4.00;3.10;;;;;;;30.24;nan;100885.63;5069732;28;20040;-81
2021/06/28 11:41:08;;;;;;;2.97;2.78;;;;;;;30.60;nan;100871.19;5081321;28;20410;-83
2021/06/28 11:44:02;;;;;;;3.97;3.38;;;;;;;30.77;nan;100870.34;5074057;28;20044;-81
2021/06/28 11:46:34;;;;;;;3.75;3.30;;;;;;;30.66;nan;100868.72;5048176;28;20048;-81
2021/06/28 11:49:12;;;;;;;10.80;3.90;;;;;;;30.44;nan;100863.72;5062915;28;20036;-81
2021/06/28 11:51:41;;;;;;;3.67;3.38;;;;;;;30.09;nan;100865.34;5084743;28;20042;-83
2021/06/28 11:54:12;;;;;;;4.00;3.70;;;;;;;30.02;nan;100863.38;5059124;28;20039;-82
2021/06/28 11:56:44;;;;;;;4.85;3.50;;;;;;;29.81;nan;100867.22;5067503;28;20704;-81
2021/06/28 11:59:15;;;;;;;3.50;3.20;;;;;;;29.60;nan;100863.88;5077803;28;20130;-80
2021/06/28 12:01:58;;;;;;;5.70;3.30;;;;;;;29.58;nan;100858.56;5068313;28;20585;-81
2021/06/28 12:04:31;;;;;;;4.03;3.70;;;;;;;29.24;nan;100857.34;5059162;28;20569;-82
2021/06/28 12:07:14;;;;;;;3.95;3.60;;;;;;;29.45;nan;100852.59;5061818;28;20084;-81
2021/06/28 12:09:48;;;;;;;3.80;3.40;;;;;;;29.58;nan;100855.84;5085851;28;20080;-80
2021/06/28 12:12:16;;;;;;;3.70;3.40;;;;;;;30.04;nan;100847.75;5067261;28;20139;-81
2021/06/28 12:15:03;;;;;;;4.47;3.20;;;;;;;30.64;nan;100848.91;5081274;28;20032;-83
2021/06/28 12:17:33;;;;;;;4.47;4.03;;;;;;;31.14;nan;100842.84;5055405;28;20079;-86
2021/06/28 12:20:05;;;;;;;3.50;3.20;;;;;;;31.37;nan;100843.22;5066171;28;20124;-82
2021/06/28 12:22:41;;;;;;;3.97;3.63;;;;;;;31.38;nan;100842.19;5082199;28;20072;-84
2021/06/28 12:25:13;;;;;;;4.68;3.70;;;;;;;31.47;nan;100845.81;5057743;28;20086;-83
2021/06/28 12:27:45;;;;;;;3.90;3.50;;;;;;;31.53;nan;100845.16;5071641;28;20481;-82
2021/06/28 12:30:40;;;;;;;4.82;4.00;;;;;;;31.77;nan;100841.72;5077886;28;20040;-82